Time;durP1;ratioP1;P1;durP2;ratioP2;P2;SDS_P1;SDS_P2;PMS_P1;PMS_P2;Temp;Humidity;BMP_temperature;BMP_pressure;BME280_temperature;BME280_humidity;BME280_pressure;Samples;Min_cycle;Max_cycle;Signal;HPM_P1;HPM_P2
2021/09/16 00:01:02;;;;;;;3.23;1.90;;;;;;;;;;5066508;28;20243;-59
2021/09/16 00:03:28;;;;;;;2.47;2.00;;;;;;;;;;5067263;28;20208;-59
2021/09/16 00:05:54;;;;;;;3.23;2.30;;;;;;;;;;5076781;28;20177;-59
2021/09/16 00:08:20;;;;;;;1.87;1.77;;;;;;;;;;5066961;28;20326;-59
2021/09/16 00:10:46;;;;;;;3.43;1.90;;;;;;;;;;5065614;28;20314;-59
2021/09/16 00:13:12;;;;;;;3.70;2.10;;;;;;;;;;5069527;28;20173;-59
2021/09/16 00:15:39;;;;;;;2.80;2.13;;;;;;;;;;5078300;28;20196;-59
2021/09/16 00:18:05;;;;;;;2.30;2.07;;;;;;;;;;5071496;28;20184;-59
2021/09/16 00:20:32;;;;;;;4.07;2.10;;;;;;;;;;5069790;28;20647;-59
2021/09/16 00:22:58;;;;;;;3.00;1.80;;;;;;;;;;5085582;28;20184;-59
2021/09/16 00:25:24;;;;;;;5.27;1.90;;;;;;;;;;5067422;28;20176;-59
2021/09/16 00:27:50;;;;;;;2.10;1.87;;;;;;;;;;5068822;28;20267;-59
2021/09/16 00:30:16;;;;;;;3.17;2.00;;;;;;;;;;5068318;28;20184;-59
2021/09/16 00:32:42;;;;;;;1.93;1.73;;;;;;;;;;5071153;28;20192;-59
2021/09/16 00:35:09;;;;;;;3.83;1.60;;;;;;;;;;5068111;28;20226;-59
2021/09/16 00:37:35;;;;;;;2.13;1.73;;;;;;;;;;5066115;28;20187;-59
2021/09/16 00:40:01;;;;;;;1.67;1.57;;;;;;;;;;5069729;28;20175;-59
2021/09/16 00:42:27;;;;;;;2.70;2.03;;;;;;;;;;5070580;28;20576;-59
2021/09/16 00:44:53;;;;;;;2.03;1.90;;;;;;;;;;5068553;28;20215;-59
2021/09/16 00:47:19;;;;;;;2.20;2.03;;;;;;;;;;5070432;28;20625;-59
2021/09/16 00:49:46;;;;;;;2.10;2.00;;;;;;;;;;5069320;28;20184;-59
2021/09/16 00:52:12;;;;;;;3.10;2.23;;;;;;;;;;5069811;28;20230;-59
2021/09/16 00:54:39;;;;;;;2.60;2.10;;;;;;;;;;5067432;28;20202;-59
2021/09/16 00:57:06;;;;;;;2.17;1.90;;;;;;;;;;5062936;28;20196;-59
2021/09/16 00:59:36;;;;;;;2.30;2.10;;;;;;;;;;5069629;28;20172;-59
2021/09/16 01:02:02;;;;;;;2.47;2.23;;;;;;;;;;5070298;28;20180;-59
2021/09/16 01:04:29;;;;;;;2.27;1.70;;;;;;;;;;5068769;28;20276;-59
2021/09/16 01:06:56;;;;;;;2.37;2.17;;;;;;;;;;5070419;28;20192;-59
2021/09/16 01:09:22;;;;;;;3.37;2.00;;;;;;;;;;5061035;28;20569;-59
2021/09/16 01:11:48;;;;;;;2.00;1.80;;;;;;;;;;5070037;28;20482;-59
2021/09/16 01:14:32;;;;;;;1.90;1.70;;;;;;;;;;5069497;28;20184;-59
2021/09/16 01:17:00;;;;;;;1.80;1.70;;;;;;;;;;5070418;28;20187;-59
2021/09/16 01:19:26;;;;;;;3.10;1.70;;;;;;;;;;5069648;28;20192;-59
2021/09/16 01:21:52;;;;;;;2.10;1.90;;;;;;;;;;5069111;28;20215;-59
2021/09/16 01:24:19;;;;;;;3.50;2.10;;;;;;;;;;5067185;28;20199;-58
2021/09/16 01:26:45;;;;;;;1.63;1.53;;;;;;;;;;5068559;28;20212;-59
2021/09/16 01:29:12;;;;;;;1.80;1.70;;;;;;;;;;5068519;28;20219;-59
2021/09/16 01:31:39;;;;;;;2.90;2.17;;;;;;;;;;5067544;28;20188;-59
2021/09/16 01:34:06;;;;;;;2.10;2.00;;;;;;;;;;5068288;28;20640;-59
2021/09/16 01:36:32;;;;;;;2.90;1.63;;;;;;;;;;5069784;28;20196;-59
2021/09/16 01:38:58;;;;;;;1.70;1.60;;;;;;;;;;5067828;28;20200;-59
2021/09/16 01:41:24;;;;;;;2.50;2.00;;;;;;;;;;5067009;28;20180;-59
2021/09/16 01:43:51;;;;;;;1.90;1.70;;;;;;;;;;5068960;28;20265;-59
2021/09/16 01:46:17;;;;;;;1.70;1.60;;;;;;;;;;5082732;28;20261;-59
2021/09/16 01:48:43;;;;;;;1.83;1.67;;;;;;;;;;5067975;28;20188;-59
2021/09/16 01:51:09;;;;;;;2.53;1.97;;;;;;;;;;5068063;28;20569;-59
2021/09/16 01:53:35;;;;;;;2.07;1.70;;;;;;;;;;5083043;28;20183;-59
2021/09/16 01:56:01;;;;;;;2.30;2.10;;;;;;;;;;5068088;28;20209;-59
2021/09/16 01:58:27;;;;;;;1.70;1.60;;;;;;;;;;5068450;28;20176;-59
2021/09/16 02:00:53;;;;;;;3.10;1.90;;;;;;;;;;5068290;28;20176;-59
2021/09/16 02:03:19;;;;;;;5.83;5.50;;;;;;;;;;5068506;28;20675;-59
2021/09/16 02:05:45;;;;;;;4.30;1.80;;;;;;;;;;5072512;28;20566;-59
2021/09/16 02:08:11;;;;;;;2.57;1.83;;;;;;;;;;5068835;28;20188;-59
2021/09/16 02:10:37;;;;;;;2.57;2.20;;;;;;;;;;5067072;28;20228;-58
2021/09/16 02:13:03;;;;;;;2.00;1.70;;;;;;;;;;5069984;28;20188;-59
2021/09/16 02:15:29;;;;;;;2.33;1.70;;;;;;;;;;5067850;28;20234;-59
2021/09/16 02:17:55;;;;;;;4.70;2.17;;;;;;;;;;5069637;28;20501;-59
2021/09/16 02:20:22;;;;;;;2.97;2.00;;;;;;;;;;5068238;28;20180;-58
2021/09/16 02:22:48;;;;;;;3.00;1.60;;;;;;;;;;5069893;28;20182;-59
2021/09/16 02:25:14;;;;;;;2.20;1.60;;;;;;;;;;5070183;28;20184;-59
2021/09/16 02:27:41;;;;;;;1.97;1.67;;;;;;;;;;5071877;28;20329;-59
2021/09/16 02:30:07;;;;;;;1.77;1.67;;;;;;;;;;5067339;28;20199;-59
2021/09/16 02:32:34;;;;;;;3.90;2.30;;;;;;;;;;5084647;28;20239;-59
2021/09/16 02:35:00;;;;;;;2.07;1.53;;;;;;;;;;5068225;28;20200;-59
2021/09/16 02:37:26;;;;;;;1.73;1.50;;;;;;;;;;5068811;28;20182;-58
2021/09/16 02:39:52;;;;;;;1.80;1.70;;;;;;;;;;5068197;28;20233;-59
2021/09/16 02:42:19;;;;;;;1.87;1.70;;;;;;;;;;5084950;28;20179;-59
2021/09/16 02:44:45;;;;;;;3.20;2.00;;;;;;;;;;5067030;28;20242;-59
2021/09/16 02:47:11;;;;;;;1.83;1.73;;;;;;;;;;5068631;28;20176;-59
2021/09/16 02:49:37;;;;;;;2.17;1.67;;;;;;;;;;5079599;28;20236;-58
2021/09/16 02:52:03;;;;;;;2.67;1.63;;;;;;;;;;5069032;28;20173;-59
2021/09/16 02:54:29;;;;;;;3.00;2.10;;;;;;;;;;5067132;28;20181;-58
2021/09/16 02:56:56;;;;;;;3.13;2.07;;;;;;;;;;5066072;28;20635;-59
2021/09/16 02:59:22;;;;;;;3.93;2.67;;;;;;;;;;5067694;28;20255;-58
2021/09/16 03:01:48;;;;;;;3.67;2.60;;;;;;;;;;5067318;28;20280;-58
2021/09/16 03:04:14;;;;;;;3.33;2.57;;;;;;;;;;5067658;28;20176;-58
2021/09/16 03:06:40;;;;;;;2.30;2.03;;;;;;;;;;5068516;28;20192;-58
2021/09/16 03:09:06;;;;;;;2.90;2.10;;;;;;;;;;5067893;28;20164;-59
2021/09/16 03:11:33;;;;;;;3.60;2.33;;;;;;;;;;5068899;28;20216;-59
2021/09/16 03:13:59;;;;;;;5.40;2.83;;;;;;;;;;5067113;28;20184;-58
2021/09/16 03:16:25;;;;;;;2.87;2.33;;;;;;;;;;5066829;28;20188;-58
2021/09/16 03:18:51;;;;;;;2.73;2.30;;;;;;;;;;5069806;28;20663;-59
2021/09/16 03:21:17;;;;;;;3.13;2.43;;;;;;;;;;5068964;28;20160;-58
2021/09/16 03:23:43;;;;;;;5.93;2.57;;;;;;;;;;5068341;28;20172;-59
2021/09/16 03:26:09;;;;;;;5.70;2.40;;;;;;;;;;5067553;28;20215;-59
2021/09/16 03:28:40;;;;;;;3.23;2.57;;;;;;;;;;5067437;28;20188;-59
2021/09/16 03:31:07;;;;;;;5.93;3.27;;;;;;;;;;5083128;28;20195;-59
2021/09/16 03:33:33;;;;;;;5.13;2.60;;;;;;;;;;5069031;28;20608;-59
2021/09/16 03:35:59;;;;;;;3.87;2.30;;;;;;;;;;5083032;28;20701;-59
2021/09/16 03:38:25;;;;;;;4.67;2.40;;;;;;;;;;5066675;28;20176;-58
2021/09/16 03:40:51;;;;;;;4.97;2.60;;;;;;;;;;5068565;28;20636;-59
2021/09/16 03:43:17;;;;;;;3.97;2.30;;;;;;;;;;5069146;28;20177;-58
2021/09/16 03:45:44;;;;;;;3.23;2.40;;;;;;;;;;5068208;28;20187;-59
2021/09/16 03:48:10;;;;;;;5.23;2.70;;;;;;;;;;5070739;28;20189;-59
2021/09/16 03:50:37;;;;;;;4.27;2.33;;;;;;;;;;5072904;28;20198;-59
2021/09/16 03:53:03;;;;;;;2.77;2.30;;;;;;;;;;5066659;28;20276;-59
2021/09/16 03:55:30;;;;;;;3.07;2.43;;;;;;;;;;5063792;28;20232;-59
2021/09/16 03:57:56;;;;;;;3.00;2.10;;;;;;;;;;5070218;28;20176;-59
2021/09/16 04:00:22;;;;;;;6.33;2.83;;;;;;;;;;5068296;28;20176;-59
2021/09/16 04:02:48;;;;;;;5.13;3.40;;;;;;;;;;5069337;28;20187;-58
2021/09/16 04:05:14;;;;;;;6.80;4.60;;;;;;;;;;5068801;28;20191;-59
2021/09/16 04:07:40;;;;;;;3.07;2.40;;;;;;;;;;5068412;28;20188;-59
2021/09/16 04:10:07;;;;;;;3.73;2.67;;;;;;;;;;5068851;28;20176;-59
2021/09/16 04:12:33;;;;;;;3.83;2.60;;;;;;;;;;5068008;28;20616;-59
2021/09/16 04:14:59;;;;;;;4.10;3.10;;;;;;;;;;5073244;28;20215;-58
2021/09/16 04:17:26;;;;;;;3.37;2.40;;;;;;;;;;5071495;28;20393;-58
2021/09/16 04:19:52;;;;;;;2.97;2.70;;;;;;;;;;5071967;28;20176;-59
2021/09/16 04:22:18;;;;;;;8.83;3.17;;;;;;;;;;5069103;28;20237;-58
2021/09/16 04:24:44;;;;;;;5.00;2.73;;;;;;;;;;5069881;28;20183;-59
2021/09/16 04:27:12;;;;;;;4.53;4.13;;;;;;;;;;5070797;28;20184;-59
2021/09/16 04:29:38;;;;;;;4.20;3.47;;;;;;;;;;5071331;28;20665;-58
2021/09/16 04:32:05;;;;;;;3.73;2.43;;;;;;;;;;5068486;28;20314;-59
2021/09/16 04:34:31;;;;;;;4.57;3.07;;;;;;;;;;5069694;28;20294;-59
2021/09/16 04:36:57;;;;;;;5.43;2.43;;;;;;;;;;5069493;28;20627;-58
2021/09/16 04:39:23;;;;;;;3.40;2.97;;;;;;;;;;5068172;28;20185;-58
2021/09/16 04:41:50;;;;;;;3.10;2.80;;;;;;;;;;5068884;28;20220;-58
2021/09/16 04:44:16;;;;;;;3.90;2.10;;;;;;;;;;5069795;28;20234;-59
2021/09/16 04:46:42;;;;;;;4.93;2.67;;;;;;;;;;5068004;28;20184;-59
2021/09/16 04:49:08;;;;;;;4.37;3.87;;;;;;;;;;5073901;28;20191;-59
2021/09/16 04:51:34;;;;;;;4.87;4.47;;;;;;;;;;5069446;28;20568;-58
2021/09/16 04:54:01;;;;;;;4.83;2.90;;;;;;;;;;5067598;28;20198;-59
2021/09/16 04:56:27;;;;;;;3.90;2.30;;;;;;;;;;5067032;28;20246;-59
2021/09/16 04:58:53;;;;;;;4.67;2.97;;;;;;;;;;5064013;28;20563;-59
2021/09/16 05:01:19;;;;;;;4.43;4.00;;;;;;;;;;5063924;28;20673;-59
2021/09/16 05:03:45;;;;;;;3.80;2.60;;;;;;;;;;5068433;28;20184;-58
2021/09/16 05:06:11;;;;;;;4.07;3.20;;;;;;;;;;5068516;28;20177;-58
2021/09/16 05:08:37;;;;;;;8.60;2.50;;;;;;;;;;5068014;28;20185;-59
2021/09/16 05:11:03;;;;;;;4.20;2.47;;;;;;;;;;5068049;28;20212;-59
2021/09/16 05:13:29;;;;;;;4.07;3.03;;;;;;;;;;5069299;28;20180;-59
2021/09/16 05:15:56;;;;;;;3.80;2.50;;;;;;;;;;5065880;28;20750;-59
2021/09/16 05:18:22;;;;;;;3.07;2.67;;;;;;;;;;5067901;28;20176;-59
2021/09/16 05:20:49;;;;;;;3.13;2.60;;;;;;;;;;5067790;28;20185;-59
2021/09/16 05:23:15;;;;;;;2.87;2.57;;;;;;;;;;5066630;28;20639;-59
2021/09/16 05:25:41;;;;;;;4.03;2.70;;;;;;;;;;5066221;28;20184;-59
2021/09/16 05:28:07;;;;;;;5.33;2.87;;;;;;;;;;5069371;28;20241;-58
2021/09/16 05:30:34;;;;;;;5.35;3.25;;;;;;;;;;5068542;28;20454;-59
2021/09/16 05:33:00;;;;;;;2.40;2.20;;;;;;;;;;5069864;28;20227;-59
2021/09/16 05:35:26;;;;;;;3.80;2.93;;;;;;;;;;5068835;28;20201;-59
2021/09/16 05:37:54;;;;;;;3.57;3.10;;;;;;;;;;5067103;28;20212;-59
2021/09/16 05:40:20;;;;;;;4.33;2.60;;;;;;;;;;5070106;28;20617;-59
2021/09/16 05:42:46;;;;;;;6.10;2.77;;;;;;;;;;5069408;28;20177;-59
2021/09/16 05:45:12;;;;;;;4.93;2.93;;;;;;;;;;5076505;28;20172;-59
2021/09/16 05:47:38;;;;;;;3.43;2.93;;;;;;;;;;5069908;28;20180;-59
2021/09/16 05:50:05;;;;;;;4.50;3.00;;;;;;;;;;5067240;28;20180;-59
2021/09/16 05:52:31;;;;;;;2.70;2.50;;;;;;;;;;5069947;28;20184;-59
2021/09/16 05:54:57;;;;;;;4.23;2.90;;;;;;;;;;5068469;28;20274;-59
2021/09/16 05:57:23;;;;;;;3.20;2.90;;;;;;;;;;5069866;28;20230;-58
2021/09/16 05:59:49;;;;;;;3.67;2.73;;;;;;;;;;5068234;28;20184;-59
2021/09/16 06:02:16;;;;;;;5.90;3.23;;;;;;;;;;5067991;28;20184;-59
2021/09/16 06:04:42;;;;;;;4.20;3.10;;;;;;;;;;5068459;28;20772;-58
2021/09/16 06:07:08;;;;;;;5.50;3.07;;;;;;;;;;5069016;28;20183;-59
2021/09/16 06:09:35;;;;;;;3.10;2.80;;;;;;;;;;5065642;28;20181;-58
2021/09/16 06:12:02;;;;;;;4.57;3.10;;;;;;;;;;5065836;28;20726;-59
2021/09/16 06:14:30;;;;;;;2.90;2.70;;;;;;;;;;5068416;28;20581;-58
2021/09/16 06:16:56;;;;;;;3.93;3.10;;;;;;;;;;5066891;28;20684;-58
2021/09/16 06:19:22;;;;;;;3.97;2.60;;;;;;;;;;5066838;28;20285;-59
2021/09/16 06:21:48;;;;;;;4.07;3.00;;;;;;;;;;5068087;28;20675;-59
2021/09/16 06:24:14;;;;;;;4.80;3.20;;;;;;;;;;5066038;28;20271;-57
2021/09/16 06:26:40;;;;;;;5.90;4.40;;;;;;;;;;5067735;28;20189;-57
2021/09/16 06:29:06;;;;;;;6.57;4.70;;;;;;;;;;5067282;28;20976;-56
2021/09/16 06:31:32;;;;;;;7.43;5.27;;;;;;;;;;5068408;28;20169;-57
2021/09/16 06:33:58;;;;;;;7.00;4.70;;;;;;;;;;5068986;28;20642;-57
2021/09/16 06:36:24;;;;;;;6.50;4.87;;;;;;;;;;5064694;28;20196;-57
2021/09/16 06:38:50;;;;;;;9.17;5.77;;;;;;;;;;5068045;28;20177;-57
2021/09/16 06:41:16;;;;;;;11.40;6.33;;;;;;;;;;5068161;28;20233;-57
2021/09/16 06:43:43;;;;;;;14.20;6.37;;;;;;;;;;5068858;28;20207;-57
2021/09/16 06:46:09;;;;;;;10.60;5.87;;;;;;;;;;5067997;28;20209;-57
2021/09/16 06:48:35;;;;;;;10.97;5.63;;;;;;;;;;5068862;28;20271;-57
2021/09/16 06:51:01;;;;;;;6.50;5.40;;;;;;;;;;5068272;28;20597;-57
2021/09/16 06:53:27;;;;;;;12.70;6.67;;;;;;;;;;5059815;28;20178;-57
2021/09/16 06:55:53;;;;;;;12.73;5.80;;;;;;;;;;5067879;28;20207;-57
2021/09/16 06:58:20;;;;;;;11.53;5.77;;;;;;;;;;5066558;28;20188;-57
2021/09/16 07:00:46;;;;;;;8.93;5.73;;;;;;;;;;5067187;28;20185;-57
2021/09/16 07:03:12;;;;;;;13.67;5.77;;;;;;;;;;5051234;28;20267;-57
2021/09/16 07:05:39;;;;;;;10.47;6.20;;;;;;;;;;5067266;28;20271;-57
2021/09/16 07:08:05;;;;;;;8.97;5.60;;;;;;;;;;5066489;28;20181;-57
2021/09/16 07:10:32;;;;;;;11.00;5.97;;;;;;;;;;5065049;28;20189;-57
2021/09/16 07:12:58;;;;;;;8.60;5.80;;;;;;;;;;5042944;28;20212;-57
2021/09/16 07:15:24;;;;;;;7.10;5.47;;;;;;;;;;5050070;28;20204;-57
2021/09/16 07:17:51;;;;;;;7.63;5.60;;;;;;;;;;5049146;28;20315;-56
2021/09/16 07:20:17;;;;;;;8.30;6.53;;;;;;;;;;5038372;28;20577;-57
2021/09/16 07:22:43;;;;;;;8.33;6.10;;;;;;;;;;5041809;28;20217;-57
2021/09/16 07:25:10;;;;;;;7.53;5.70;;;;;;;;;;5049831;28;20717;-57
2021/09/16 07:27:36;;;;;;;9.57;6.73;;;;;;;;;;5053900;28;20176;-57
2021/09/16 07:30:04;;;;;;;7.17;5.37;;;;;;;;;;5046686;28;20181;-57
2021/09/16 07:32:30;;;;;;;10.33;6.53;;;;;;;;;;5058453;28;20291;-57
2021/09/16 07:34:56;;;;;;;7.10;5.97;;;;;;;;;;5044427;28;20597;-57
2021/09/16 07:37:22;;;;;;;8.17;5.90;;;;;;;;;;5052794;28;20192;-57
2021/09/16 07:39:48;;;;;;;8.47;6.23;;;;;;;;;;5053380;28;20235;-57
2021/09/16 07:42:14;;;;;;;10.80;6.67;;;;;;;;;;5019568;28;20195;-57
2021/09/16 07:44:40;;;;;;;10.70;6.97;;;;;;;;;;5067236;28;20644;-57
2021/09/16 07:47:07;;;;;;;9.93;6.30;;;;;;;;;;5043228;28;20181;-57
2021/09/16 07:49:33;;;;;;;12.53;6.50;;;;;;;;;;5050206;28;20191;-57
2021/09/16 07:51:59;;;;;;;9.03;6.80;;;;;;;;;;5037486;28;20181;-57
2021/09/16 07:54:26;;;;;;;10.53;6.43;;;;;;;;;;5054570;28;20582;-57
2021/09/16 07:56:52;;;;;;;11.00;7.47;;;;;;;;;;5039265;28;20209;-57
2021/09/16 07:59:18;;;;;;;9.33;6.87;;;;;;;;;;5053128;28;20177;-57
2021/09/16 08:01:44;;;;;;;9.07;6.67;;;;;;;;;;5050910;28;20173;-57
2021/09/16 08:04:10;;;;;;;8.23;6.43;;;;;;;;;;5059479;28;20173;-57
2021/09/16 08:06:37;;;;;;;11.57;5.93;;;;;;;;;;5052262;28;20185;-57
2021/09/16 08:09:04;;;;;;;8.50;5.80;;;;;;;;;;5047500;28;20662;-57
2021/09/16 08:11:30;;;;;;;6.93;5.97;;;;;;;;;;5056089;28;20227;-57
2021/09/16 08:13:56;;;;;;;5.77;5.17;;;;;;;;;;5056327;28;20537;-57
2021/09/16 08:16:22;;;;;;;6.30;5.07;;;;;;;;;;5069604;28;20543;-57
2021/09/16 08:18:49;;;;;;;8.00;5.73;;;;;;;;;;5058159;28;20195;-57
2021/09/16 08:21:16;;;;;;;7.97;5.77;;;;;;;;;;5074380;28;20219;-57
2021/09/16 08:23:42;;;;;;;5.80;4.70;;;;;;;;;;5068457;28;20176;-57
2021/09/16 08:26:08;;;;;;;5.63;4.83;;;;;;;;;;5071014;28;20177;-57
2021/09/16 08:28:35;;;;;;;6.93;5.17;;;;;;;;;;5071338;28;20191;-57
2021/09/16 08:31:04;;;;;;;9.30;5.03;;;;;;;;;;5075044;28;20200;-57
2021/09/16 08:33:31;;;;;;;9.47;5.80;;;;;;;;;;5070690;28;20247;-57
2021/09/16 08:35:57;;;;;;;7.27;5.50;;;;;;;;;;5072097;28;20606;-57
2021/09/16 08:38:24;;;;;;;6.87;4.73;;;;;;;;;;5063029;28;20180;-57
2021/09/16 08:40:50;;;;;;;6.93;4.07;;;;;;;;;;5035719;28;20192;-57
2021/09/16 08:43:19;;;;;;;8.45;4.80;;;;;;;;;;5073518;28;20837;-57
2021/09/16 08:45:47;;;;;;;6.03;4.30;;;;;;;;;;5076558;28;20189;-57
2021/09/16 08:48:14;;;;;;;7.23;5.17;;;;;;;;;;5077865;28;20232;-57
2021/09/16 08:50:40;;;;;;;3.87;3.47;;;;;;;;;;5048585;28;20176;-57
2021/09/16 08:53:06;;;;;;;5.73;4.20;;;;;;;;;;5072139;28;20217;-57
2021/09/16 08:55:33;;;;;;;6.70;4.53;;;;;;;;;;5070220;28;20673;-57
2021/09/16 08:58:01;;;;;;;4.73;3.60;;;;;;;;;;5082568;28;20183;-57
2021/09/16 09:00:27;;;;;;;5.77;3.83;;;;;;;;;;5052910;28;20227;-57
2021/09/16 09:02:54;;;;;;;5.17;3.70;;;;;;;;;;5071518;28;20584;-57
2021/09/16 09:05:21;;;;;;;4.20;3.60;;;;;;;;;;5058486;28;20651;-57
2021/09/16 09:07:49;;;;;;;4.37;3.03;;;;;;;;;;5075288;28;20183;-57
2021/09/16 09:10:33;;;;;;;3.13;2.87;;;;;;;;;;5080484;28;20595;-57
2021/09/16 09:13:01;;;;;;;4.90;3.20;;;;;;;;;;5070344;28;20562;-57
2021/09/16 09:15:27;;;;;;;7.23;3.13;;;;;;;;;;5068945;28;20200;-57
2021/09/16 09:18:07;;;;;;;3.93;2.90;;;;;;;;;;5083098;28;20172;-57
2021/09/16 09:20:34;;;;;;;4.53;3.10;;;;;;;;;;5054962;28;20240;-57
2021/09/16 09:23:00;;;;;;;3.70;3.20;;;;;;;;;;5067592;28;20918;-57
2021/09/16 09:25:29;;;;;;;4.60;3.27;;;;;;;;;;5052245;28;20533;-57
2021/09/16 09:27:55;;;;;;;6.03;3.00;;;;;;;;;;5068915;28;20185;-57
2021/09/16 09:30:23;;;;;;;4.63;3.00;;;;;;;;;;5070170;28;20168;-57
2021/09/16 09:32:49;;;;;;;3.23;3.03;;;;;;;;;;5067661;28;20199;-57
2021/09/16 09:35:25;;;;;;;7.60;3.50;;;;;;;;;;5078849;28;20733;-57
2021/09/16 09:37:51;;;;;;;5.33;3.03;;;;;;;;;;5069577;28;20228;-57
2021/09/16 09:40:24;;;;;;;3.10;2.80;;;;;;;;;;5056661;28;20556;-57
2021/09/16 09:42:50;;;;;;;3.40;2.70;;;;;;;;;;5089062;28;20157;-57
2021/09/16 09:45:17;;;;;;;4.47;3.00;;;;;;;;;;5078965;28;20176;-57
2021/09/16 09:47:44;;;;;;;6.93;3.07;;;;;;;;;;5068007;28;20172;-57
2021/09/16 09:50:27;;;;;;;4.10;3.13;;;;;;;;;;5070015;28;20185;-57
2021/09/16 09:52:53;;;;;;;4.97;3.37;;;;;;;;;;5067566;28;20176;-57
2021/09/16 09:55:21;;;;;;;3.73;2.90;;;;;;;;;;5070174;28;20648;-57
2021/09/16 09:57:47;;;;;;;4.50;2.97;;;;;;;;;;5069981;28;20179;-57
2021/09/16 10:00:18;;;;;;;5.13;3.13;;;;;;;;;;5069111;28;20176;-57
2021/09/16 10:02:54;;;;;;;3.93;3.07;;;;;;;;;;5066985;28;20531;-57
2021/09/16 10:05:31;;;;;;;4.70;3.03;;;;;;;;;;5079123;28;20190;-58
2021/09/16 10:07:58;;;;;;;3.37;2.90;;;;;;;;;;5068406;28;20174;-57
2021/09/16 10:10:25;;;;;;;5.83;2.73;;;;;;;;;;5078078;28;20172;-57
2021/09/16 10:12:54;;;;;;;5.43;3.33;;;;;;;;;;5089131;28;20664;-57
2021/09/16 10:15:21;;;;;;;3.57;3.20;;;;;;;;;;5079353;28;20231;-57
2021/09/16 10:17:48;;;;;;;6.70;3.37;;;;;;;;;;5059874;28;20183;-57
2021/09/16 10:20:17;;;;;;;4.17;2.73;;;;;;;;;;5069292;28;20584;-57
2021/09/16 10:23:10;;;;;;;4.07;2.90;;;;;;;;;;5071148;28;20181;-58
2021/09/16 10:25:44;;;;;;;5.80;3.00;;;;;;;;;;5072264;28;20192;-57
2021/09/16 10:28:10;;;;;;;7.77;3.20;;;;;;;;;;5068941;28;20763;-57
2021/09/16 10:30:46;;;;;;;2.50;2.30;;;;;;;;;;5066424;28;20183;-57
2021/09/16 10:33:29;;;;;;;2.90;2.37;;;;;;;;;;5071969;28;20214;-58
2021/09/16 10:35:59;;;;;;;5.40;2.40;;;;;;;;;;5074763;28;20216;-57
2021/09/16 10:38:37;;;;;;;4.73;2.87;;;;;;;;;;5066381;28;20180;-57
2021/09/16 10:41:10;;;;;;;3.17;2.60;;;;;;;;;;5068151;28;20192;-57
2021/09/16 10:43:37;;;;;;;5.07;2.60;;;;;;;;;;5077072;28;20182;-57
2021/09/16 10:46:21;;;;;;;4.20;2.67;;;;;;;;;;5067367;28;20203;-58
2021/09/16 10:48:48;;;;;;;3.03;2.40;;;;;;;;;;5061900;28;20172;-57
2021/09/16 10:51:14;;;;;;;4.13;2.57;;;;;;;;;;5066496;28;20203;-57
2021/09/16 10:53:41;;;;;;;4.53;3.33;;;;;;;;;;5066334;28;20695;-57
2021/09/16 10:56:26;;;;;;;2.30;2.10;;;;;;;;;;5068841;28;20196;-57
2021/09/16 10:58:55;;;;;;;3.33;2.20;;;;;;;;;;5066556;28;20173;-57
2021/09/16 11:01:40;;;;;;;3.57;2.20;;;;;;;;;;5066068;28;20513;-57
2021/09/16 11:04:07;;;;;;;3.33;1.97;;;;;;;;;;5063312;28;20164;-57
2021/09/16 11:06:43;;;;;;;2.20;2.10;;;;;;;;;;5081400;28;20268;-57
2021/09/16 11:09:09;;;;;;;2.20;2.00;;;;;;;;;;5088189;28;20229;-57
2021/09/16 11:11:54;;;;;;;3.50;2.10;;;;;;;;;;5061834;28;20207;-57
2021/09/16 11:14:34;;;;;;;4.03;2.17;;;;;;;;;;5089277;28;20176;-57
2021/09/16 11:17:01;;;;;;;2.90;2.13;;;;;;;;;;5063140;28;20192;-57
2021/09/16 11:19:27;;;;;;;5.03;2.43;;;;;;;;;;5087137;28;20909;-57
2021/09/16 11:22:01;;;;;;;3.00;2.70;;;;;;;;;;5086512;28;20296;-58
2021/09/16 11:24:31;;;;;;;2.90;2.67;;;;;;;;;;5087826;28;20233;-58
2021/09/16 11:26:58;;;;;;;3.93;3.30;;;;;;;;;;5102666;28;20282;-57
2021/09/16 11:29:24;;;;;;;6.80;3.03;;;;;;;;;;5086609;28;20185;-57
2021/09/16 11:32:01;;;;;;;3.83;2.53;;;;;;;;;;5073876;28;20196;-57
2021/09/16 11:34:27;;;;;;;5.00;2.80;;;;;;;;;;5066929;28;20190;-57
2021/09/16 11:37:22;;;;;;;4.27;2.40;;;;;;;;;;5070430;28;20299;-57
2021/09/16 11:39:56;;;;;;;3.63;2.50;;;;;;;;;;5084664;28;20178;-57
2021/09/16 11:42:22;;;;;;;4.60;2.63;;;;;;;;;;5090312;28;20986;-57
2021/09/16 11:44:55;;;;;;;3.63;2.70;;;;;;;;;;5101901;28;20224;-57
2021/09/16 11:47:22;;;;;;;2.60;2.40;;;;;;;;;;5094480;28;20584;-57
2021/09/16 11:49:48;;;;;;;4.73;2.33;;;;;;;;;;5083296;28;20177;-57
2021/09/16 11:52:18;;;;;;;3.27;2.20;;;;;;;;;;5086375;28;20194;-57
2021/09/16 11:55:03;;;;;;;3.07;2.17;;;;;;;;;;5089639;28;20185;-57
2021/09/16 11:57:29;;;;;;;3.37;3.07;;;;;;;;;;5083383;28;20192;-57
2021/09/16 11:59:55;;;;;;;3.83;2.40;;;;;;;;;;5085616;28;20173;-57
2021/09/16 12:02:21;;;;;;;4.63;3.80;;;;;;;;;;5074007;28;20650;-57
2021/09/16 12:04:49;;;;;;;3.63;3.03;;;;;;;;;;5091352;28;20176;-57
2021/09/16 12:07:18;;;;;;;3.50;2.60;;;;;;;;;;5087291;28;20593;-57
2021/09/16 12:09:45;;;;;;;3.00;2.33;;;;;;;;;;5095636;28;20520;-57
2021/09/16 12:12:11;;;;;;;3.67;2.57;;;;;;;;;;5080620;28;20217;-57
2021/09/16 12:14:37;;;;;;;3.03;2.33;;;;;;;;;;5078393;28;20543;-57
2021/09/16 12:17:04;;;;;;;2.97;2.33;;;;;;;;;;5082927;28;20570;-57
2021/09/16 12:19:31;;;;;;;2.97;2.50;;;;;;;;;;5089771;28;20185;-57
2021/09/16 12:21:57;;;;;;;3.73;2.30;;;;;;;;;;5081993;28;20692;-58
2021/09/16 12:24:28;;;;;;;4.27;2.90;;;;;;;;;;5080294;28;20567;-58
2021/09/16 12:26:54;;;;;;;3.53;2.70;;;;;;;;;;5094914;28;20187;-57
2021/09/16 12:29:26;;;;;;;4.13;2.47;;;;;;;;;;5092002;28;20176;-57
2021/09/16 12:31:57;;;;;;;3.40;3.10;;;;;;;;;;5091586;28;20203;-57
2021/09/16 12:34:28;;;;;;;2.87;2.60;;;;;;;;;;5072699;28;20179;-57
2021/09/16 12:36:55;;;;;;;2.97;2.30;;;;;;;;;;5081836;28;20184;-57
2021/09/16 12:39:22;;;;;;;5.40;2.90;;;;;;;;;;5095535;28;20172;-57
2021/09/16 12:41:56;;;;;;;2.80;2.60;;;;;;;;;;5091652;28;20582;-57
2021/09/16 12:44:24;;;;;;;3.03;2.50;;;;;;;;;;5095662;28;20220;-57
2021/09/16 12:46:52;;;;;;;3.40;2.23;;;;;;;;;;5069899;28;20656;-57
2021/09/16 12:49:26;;;;;;;3.20;2.70;;;;;;;;;;5070321;28;20523;-58
2021/09/16 12:52:15;;;;;;;2.83;2.63;;;;;;;;;;5091167;28;20166;-57
2021/09/16 12:54:46;;;;;;;2.93;2.70;;;;;;;;;;5062057;28;20179;-57
2021/09/16 12:57:12;;;;;;;3.00;2.53;;;;;;;;;;5098502;28;20185;-57
2021/09/16 12:59:42;;;;;;;3.47;2.47;;;;;;;;;;5071961;28;21069;-57
2021/09/16 13:02:11;;;;;;;2.50;2.30;;;;;;;;;;5090220;28;20215;-57
2021/09/16 13:05:03;;;;;;;3.53;2.70;;;;;;;;;;5099867;28;20208;-57
2021/09/16 13:07:35;;;;;;;3.87;2.70;;;;;;;;;;5097417;28;20187;-57
2021/09/16 13:10:14;;;;;;;3.63;2.60;;;;;;;;;;5082609;28;20167;-57
2021/09/16 13:12:41;;;;;;;5.73;3.20;;;;;;;;;;5096909;28;20220;-57
2021/09/16 13:15:08;;;;;;;3.83;3.10;;;;;;;;;;5090053;28;20553;-57
2021/09/16 13:17:34;;;;;;;8.13;4.10;;;;;;;;;;5092203;28;20244;-57
2021/09/16 13:20:01;;;;;;;3.10;2.70;;;;;;;;;;5096319;28;20175;-57
2021/09/16 13:22:27;;;;;;;4.57;3.03;;;;;;;;;;5082187;28;20547;-57
2021/09/16 13:24:54;;;;;;;3.13;2.83;;;;;;;;;;5085656;28;20543;-57
2021/09/16 13:27:20;;;;;;;4.13;2.70;;;;;;;;;;5090991;28;20183;-57
2021/09/16 13:29:47;;;;;;;5.83;3.33;;;;;;;;;;5092477;28;20638;-57
2021/09/16 13:32:13;;;;;;;7.13;3.37;;;;;;;;;;5077638;28;20211;-58
2021/09/16 13:34:39;;;;;;;3.40;3.03;;;;;;;;;;5088360;28;20557;-57
2021/09/16 13:37:06;;;;;;;3.47;2.40;;;;;;;;;;5097845;28;20200;-57
2021/09/16 13:39:32;;;;;;;2.63;2.20;;;;;;;;;;5082994;28;20187;-58
2021/09/16 13:41:58;;;;;;;3.30;2.10;;;;;;;;;;5071232;28;20528;-57
2021/09/16 13:44:24;;;;;;;3.07;2.10;;;;;;;;;;5103745;28;20178;-58
2021/09/16 13:46:51;;;;;;;3.03;2.40;;;;;;;;;;5073292;28;20184;-58
2021/09/16 13:49:17;;;;;;;1.80;1.70;;;;;;;;;;5087490;28;20184;-57
2021/09/16 13:51:43;;;;;;;3.03;2.23;;;;;;;;;;5090538;28;20173;-58
2021/09/16 13:54:10;;;;;;;3.93;2.57;;;;;;;;;;5094179;28;20246;-57
2021/09/16 13:56:36;;;;;;;4.03;2.80;;;;;;;;;;5070833;28;20203;-57
2021/09/16 13:59:02;;;;;;;4.00;2.27;;;;;;;;;;5071436;28;20452;-57
2021/09/16 14:01:29;;;;;;;3.43;2.40;;;;;;;;;;5071438;28;20313;-58
2021/09/16 14:03:55;;;;;;;4.07;2.20;;;;;;;;;;5088954;28;20177;-58
2021/09/16 14:06:22;;;;;;;2.83;2.30;;;;;;;;;;5095780;28;20184;-58
2021/09/16 14:08:49;;;;;;;3.87;2.27;;;;;;;;;;5084914;28;20641;-58
2021/09/16 14:11:16;;;;;;;5.23;2.50;;;;;;;;;;5069132;28;20227;-57
2021/09/16 14:13:42;;;;;;;5.40;2.20;;;;;;;;;;5088413;28;20563;-57
2021/09/16 14:16:09;;;;;;;3.77;2.37;;;;;;;;;;5088007;28;20666;-57
2021/09/16 14:18:37;;;;;;;5.87;3.00;;;;;;;;;;5087891;28;20677;-57
2021/09/16 14:21:04;;;;;;;2.17;1.87;;;;;;;;;;5068621;28;20175;-57
2021/09/16 14:23:30;;;;;;;7.70;2.40;;;;;;;;;;5052132;28;20184;-58
2021/09/16 14:25:56;;;;;;;5.20;2.30;;;;;;;;;;5085671;28;20183;-57
2021/09/16 14:28:22;;;;;;;2.87;2.20;;;;;;;;;;5069419;28;20270;-57
2021/09/16 14:30:48;;;;;;;2.60;2.40;;;;;;;;;;5084995;28;20295;-57
2021/09/16 14:33:21;;;;;;;3.43;2.10;;;;;;;;;;5078946;28;20212;-58
2021/09/16 14:35:47;;;;;;;7.13;2.77;;;;;;;;;;5078742;28;20200;-57
2021/09/16 14:38:13;;;;;;;4.17;2.90;;;;;;;;;;5076609;28;20179;-57
2021/09/16 14:40:40;;;;;;;4.40;2.33;;;;;;;;;;5084589;28;20206;-58
2021/09/16 14:43:07;;;;;;;2.77;2.30;;;;;;;;;;5079633;28;20171;-57
2021/09/16 14:45:33;;;;;;;4.53;2.53;;;;;;;;;;5073272;28;20192;-57